Time;durP1;ratioP1;P1;durP2;ratioP2;P2;SDS_P1;SDS_P2;PMS_P1;PMS_P2;Temp;Humidity;BMP_temperature;BMP_pressure;BME280_temperature;BME280_humidity;BME280_pressure;Samples;Min_cycle;Max_cycle;Signal;HPM_P1;HPM_P2
2022/01/16 00:00:16;;;;;;;;;;;;;;;-4.98;100.00;101516.50;5576538;32;34633;-82
2022/01/16 00:06:42;;;;;;;;;;;;;;;-4.98;100.00;101526.81;5577136;32;34991;-82
2022/01/16 00:09:46;;;;;;;;;;;;;;;-4.96;100.00;101519.94;5576162;32;34610;-82
2022/01/16 00:12:52;;;;;;;;;;;;;;;-5.00;100.00;101501.91;5577250;32;34890;-82
2022/01/16 00:15:55;;;;;;;;;;;;;;;-5.06;100.00;101495.06;5576017;32;34948;-82
2022/01/16 00:19:00;;;;;;;;;;;;;;;-5.08;100.00;101478.72;5575243;32;34579;-82
2022/01/16 00:22:11;;;;;;;;;;;;;;;-5.11;100.00;101509.72;5578357;32;34022;-82
2022/01/16 00:25:14;;;;;;;;;;;;;;;-5.13;100.00;101516.62;5577674;32;34242;-82
2022/01/16 00:28:17;;;;;;;;;;;;;;;-5.19;100.00;101512.38;5574953;32;34658;-82
2022/01/16 00:31:20;;;;;;;;;;;;;;;-5.15;100.00;101559.66;5574538;32;35083;-83
2022/01/16 00:34:23;;;;;;;;;;;;;;;-5.07;100.00;101516.56;5575599;32;34374;-82
2022/01/16 00:37:25;;;;;;;;;;;;;;;-5.13;100.00;101501.16;5576547;32;34641;-82
2022/01/16 00:40:29;;;;;;;;;;;;;;;-5.17;100.00;101525.25;5575576;32;35121;-82
2022/01/16 00:43:32;;;;;;;;;;;;;;;-5.23;100.00;101499.47;5574741;31;34568;-82
2022/01/16 00:46:34;;;;;;;;;;;;;;;-5.26;100.00;101490.03;5574566;32;35262;-82
2022/01/16 00:49:41;;;;;;;;;;;;;;;-5.16;100.00;101470.19;5576180;32;34927;-82
2022/01/16 00:52:43;;;;;;;;;;;;;;;-5.03;100.00;101482.13;5578131;32;33927;-82
2022/01/16 00:55:46;;;;;;;;;;;;;;;-5.03;100.00;101481.28;5577610;32;34696;-82
2022/01/16 00:58:49;;;;;;;;;;;;;;;-4.91;100.00;101498.41;5578253;32;35508;-82
2022/01/16 01:01:53;;;;;;;;;;;;;;;-4.90;100.00;101502.69;5577165;31;34542;-82
2022/01/16 01:04:56;;;;;;;;;;;;;;;-5.00;100.00;101486.41;5577110;32;34927;-82
2022/01/16 01:07:59;;;;;;;;;;;;;;;-5.00;100.00;101492.41;5577017;32;34553;-82
2022/01/16 01:11:09;;;;;;;;;;;;;;;-5.07;100.00;101480.44;5578665;32;34383;-82
2022/01/16 01:14:26;;;;;;;;;;;;;;;-5.08;100.00;101509.69;5577252;32;34393;-83
2022/01/16 01:17:34;;;;;;;;;;;;;;;-5.02;100.00;101517.41;5577351;32;35247;-83
2022/01/16 01:20:40;;;;;;;;;;;;;;;-5.03;100.00;101476.09;5578050;32;35277;-82
2022/01/16 01:23:46;;;;;;;;;;;;;;;-4.98;100.00;101395.19;5579675;32;35190;-82
2022/01/16 01:27:12;;;;;;;;;;;;;;;-4.99;100.00;101419.28;5578058;32;34539;-82
2022/01/16 01:30:19;;;;;;;;;;;;;;;-5.07;100.00;101407.34;5586643;31;34603;-82
2022/01/16 01:33:23;;;;;;;;;;;;;;;-5.08;100.00;101432.28;5597892;31;35627;-82
2022/01/16 01:36:26;;;;;;;;;;;;;;;-5.08;100.00;101470.97;5598979;31;34389;-82
2022/01/16 01:39:29;;;;;;;;;;;;;;;-5.13;100.00;101485.66;5599331;31;34723;-82
2022/01/16 01:42:35;;;;;;;;;;;;;;;-4.98;100.00;101501.00;5597062;31;34015;-82
2022/01/16 01:52:23;;;;;;;;;;;;;;;-4.96;100.00;101517.34;5597043;31;34436;-82
2022/01/16 01:55:26;;;;;;;;;;;;;;;-5.02;100.00;101472.66;5597293;31;34075;-82
2022/01/16 01:58:29;;;;;;;;;;;;;;;-5.03;100.00;101476.97;5597443;31;34688;-82
2022/01/16 02:01:34;;;;;;;;;;;;;;;-5.10;100.00;101470.13;5596591;31;34862;-83
2022/01/16 02:04:37;;;;;;;;;;;;;;;-5.19;100.00;101460.75;5597688;31;34469;-82
2022/01/16 02:07:41;;;;;;;;;;;;;;;-5.28;100.00;101472.00;5596937;31;34740;-82
2022/01/16 02:10:43;;;;;;;;;;;;;;;-5.35;100.00;101469.47;5597795;31;34080;-82
2022/01/16 02:31:13;;;;;;;;;;;;;;;-5.15;100.00;101492.56;5572072;31;34103;-82
2022/01/16 02:34:33;;;;;;;;;;;;;;;-5.30;100.00;101484.06;5600765;31;34738;-82
2022/01/16 02:37:38;;;;;;;;;;;;;;;-5.46;100.00;101513.41;5598655;31;35487;-82
2022/01/16 02:40:55;;;;;;;;;;;;;;;-5.59;100.00;101498.00;5598275;31;35110;-82
2022/01/16 02:44:10;;;;;;;;;;;;;;;-5.68;100.00;101510.91;5597302;31;34266;-82
2022/01/16 02:47:19;;;;;;;;;;;;;;;-5.74;100.00;101503.22;5597071;31;34035;-82
2022/01/16 02:50:24;;;;;;;;;;;;;;;-5.81;100.00;101511.87;5598082;31;36771;-82
2022/01/16 02:53:29;;;;;;;;;;;;;;;-5.83;100.00;101513.59;5596782;31;34942;-82
2022/01/16 02:56:35;;;;;;;;;;;;;;;-5.89;100.00;101507.56;5598301;31;34817;-85
2022/01/16 02:59:37;;;;;;;;;;;;;;;-5.90;100.00;101508.44;5598800;31;34517;-83
2022/01/16 03:02:43;;;;;;;;;;;;;;;-5.89;100.00;101510.16;5597375;31;35514;-82
2022/01/16 03:05:47;;;;;;;;;;;;;;;-5.94;100.00;101505.88;5597290;31;34312;-82
2022/01/16 03:08:50;;;;;;;;;;;;;;;-5.90;100.00;101495.56;5596388;31;34984;-82
2022/01/16 03:11:52;;;;;;;;;;;;;;;-6.00;100.00;101496.50;5596424;31;35496;-82
2022/01/16 03:14:55;;;;;;;;;;;;;;;-6.03;100.00;101496.53;5596931;31;34529;-83
2022/01/16 03:24:22;;;;;;;;;;;;;;;-6.02;100.00;101497.38;5596867;31;34984;-83
2022/01/16 03:27:27;;;;;;;;;;;;;;;-6.09;100.00;101486.22;5598214;31;35137;-82
2022/01/16 03:30:32;;;;;;;;;;;;;;;-6.14;100.00;101495.69;5597797;31;34448;-82
2022/01/16 03:33:35;;;;;;;;;;;;;;;-6.16;100.00;101484.53;5597895;31;34766;-82
2022/01/16 03:36:37;;;;;;;;;;;;;;;-6.21;100.00;101477.69;5596296;31;35089;-83
2022/01/16 03:39:40;;;;;;;;;;;;;;;-6.23;100.00;101489.69;5596338;31;34525;-82
2022/01/16 03:42:43;;;;;;;;;;;;;;;-6.26;100.00;101479.44;5595957;31;34982;-83
2022/01/16 03:45:46;;;;;;;;;;;;;;;-6.27;100.00;101472.56;5596548;31;34184;-84
2022/01/16 03:48:48;;;;;;;;;;;;;;;-6.31;100.00;101476.00;5596074;31;34740;-83
2022/01/16 03:51:54;;;;;;;;;;;;;;;-6.36;100.00;101472.59;5596515;31;34973;-82
2022/01/16 03:54:56;;;;;;;;;;;;;;;-6.37;100.00;101473.44;5596162;31;34838;-83
2022/01/16 03:57:59;;;;;;;;;;;;;;;-6.39;100.00;101467.44;5598415;31;34394;-84
2022/01/16 04:01:01;;;;;;;;;;;;;;;-6.40;100.00;101473.44;5596741;31;34186;-83
2022/01/16 04:04:05;;;;;;;;;;;;;;;-6.42;100.00;101463.16;5596601;31;34794;-83
2022/01/16 04:07:09;;;;;;;;;;;;;;;-6.42;100.00;101462.28;5597376;31;34422;-83
2022/01/16 04:10:12;;;;;;;;;;;;;;;-6.46;100.00;101461.44;5596514;31;34519;-83
2022/01/16 04:13:19;;;;;;;;;;;;;;;-6.48;100.00;101478.63;5596409;31;34435;-83
2022/01/16 04:16:23;;;;;;;;;;;;;;;-6.49;100.00;101478.63;5596079;31;34388;-83
2022/01/16 04:19:28;;;;;;;;;;;;;;;-6.45;100.00;101472.59;5597901;31;35212;-83
2022/01/16 04:22:31;;;;;;;;;;;;;;;-6.49;100.00;101473.47;5597466;31;34315;-83
2022/01/16 04:25:33;;;;;;;;;;;;;;;-6.42;100.00;101473.47;5599903;31;34618;-84
2022/01/16 04:28:36;;;;;;;;;;;;;;;-6.29;100.00;101484.56;5600830;31;35671;-84
2022/01/16 04:31:39;;;;;;;;;;;;;;;-6.20;100.00;101478.56;5600443;31;36671;-83
2022/01/16 04:34:41;;;;;;;;;;;;;;;-6.03;100.00;101477.63;5585205;31;36241;-84
2022/01/16 04:37:44;;;;;;;;;;;;;;;-6.03;100.00;101481.06;5599646;31;34702;-83
2022/01/16 04:44:26;;;;;;;;;;;;;;;-6.19;100.00;101480.22;5598570;31;35090;-83
2022/01/16 04:47:29;;;;;;;;;;;;;;;-6.20;100.00;101460.53;5598653;31;35471;-83
2022/01/16 04:50:32;;;;;;;;;;;;;;;-6.28;100.00;101459.66;5598579;31;33898;-83
2022/01/16 04:53:35;;;;;;;;;;;;;;;-6.35;100.00;101461.41;5599321;31;34577;-84
2022/01/16 04:56:37;;;;;;;;;;;;;;;-6.46;100.00;101455.41;5598562;31;35391;-83
2022/01/16 04:59:40;;;;;;;;;;;;;;;-6.57;100.00;101453.72;5598758;31;34745;-83
2022/01/16 05:02:42;;;;;;;;;;;;;;;-6.54;100.00;101463.19;5599316;31;34172;-83
2022/01/16 05:05:45;;;;;;;;;;;;;;;-6.51;100.00;101460.59;5602549;31;34878;-83
2022/01/16 05:08:49;;;;;;;;;;;;;;;-6.56;100.00;101455.44;5601588;31;35560;-83
2022/01/16 05:11:56;;;;;;;;;;;;;;;-6.58;100.00;101452.03;5599666;31;34444;-83
2022/01/16 05:18:20;;;;;;;;;;;;;;;-6.29;100.00;101453.66;5578686;32;34471;-83
2022/01/16 05:21:23;;;;;;;;;;;;;;;-6.34;100.00;101459.69;5578302;32;33994;-83
2022/01/16 05:24:31;;;;;;;;;;;;;;;-6.47;100.00;101459.72;5578368;32;34399;-83
2022/01/16 05:27:34;;;;;;;;;;;;;;;-6.48;100.00;101446.87;5578262;32;34600;-83
2022/01/16 05:30:37;;;;;;;;;;;;;;;-6.53;100.00;101444.31;5578618;32;34556;-83
2022/01/16 05:33:40;;;;;;;;;;;;;;;-6.54;100.00;101463.19;5578181;32;34798;-83
2022/01/16 05:36:45;;;;;;;;;;;;;;;-6.60;100.00;101455.47;5577634;32;34145;-83
2022/01/16 05:39:49;;;;;;;;;;;;;;;-6.52;100.00;101457.16;5578464;32;34347;-83
2022/01/16 05:42:55;;;;;;;;;;;;;;;-6.58;100.00;101466.63;5578147;32;35417;-83
2022/01/16 05:45:58;;;;;;;;;;;;;;;-6.60;100.00;101474.37;5578259;32;34680;-83
2022/01/16 05:49:00;;;;;;;;;;;;;;;-6.66;100.00;101471.78;5578272;32;35217;-83
2022/01/16 05:52:03;;;;;;;;;;;;;;;-6.74;100.00;101469.22;5577749;32;35598;-83
2022/01/16 05:55:06;;;;;;;;;;;;;;;-6.77;100.00;101478.66;5577539;32;35334;-84
2022/01/16 05:58:09;;;;;;;;;;;;;;;-6.79;100.00;101481.25;5577270;32;35212;-84
2022/01/16 06:01:15;;;;;;;;;;;;;;;-6.83;100.00;101476.94;5580312;32;34680;-83
2022/01/16 06:04:17;;;;;;;;;;;;;;;-6.87;100.00;101478.69;5578212;32;35119;-84
2022/01/16 06:07:20;;;;;;;;;;;;;;;-6.74;100.00;101489.81;5578032;32;34647;-84
2022/01/16 06:10:23;;;;;;;;;;;;;;;-6.64;100.00;101493.22;5579652;32;34431;-85
2022/01/16 06:13:25;;;;;;;;;;;;;;;-6.68;100.00;101491.50;5577429;31;34308;-85
2022/01/16 06:16:30;;;;;;;;;;;;;;;-6.62;100.00;101491.53;5578298;32;34854;-85
2022/01/16 06:19:33;;;;;;;;;;;;;;;-6.62;100.00;101490.66;5577951;32;34844;-85
2022/01/16 06:22:39;;;;;;;;;;;;;;;-6.66;100.00;101497.53;5577787;32;34135;-84
2022/01/16 06:25:41;;;;;;;;;;;;;;;-6.75;100.00;101498.37;5577927;32;34230;-83
2022/01/16 06:28:44;;;;;;;;;;;;;;;-6.78;100.00;101507.81;5577259;32;34696;-86
2022/01/16 06:31:47;;;;;;;;;;;;;;;-6.84;100.00;101491.53;5576971;32;35476;-83
2022/01/16 06:34:50;;;;;;;;;;;;;;;-6.90;100.00;101498.41;5577367;32;34746;-82
2022/01/16 06:37:53;;;;;;;;;;;;;;;-6.84;100.00;101501.84;5577714;32;34675;-83
2022/01/16 06:40:55;;;;;;;;;;;;;;;-6.81;100.00;101500.97;5577975;32;34469;-84
2022/01/16 06:43:58;;;;;;;;;;;;;;;-6.78;100.00;101510.41;5578303;32;34705;-84
2022/01/16 06:47:04;;;;;;;;;;;;;;;-6.78;100.00;101510.41;5588002;31;34559;-84
2022/01/16 06:50:08;;;;;;;;;;;;;;;-6.76;100.00;101513.84;5596844;31;34569;-84
2022/01/16 06:53:13;;;;;;;;;;;;;;;-6.71;100.00;101512.13;5596945;31;34214;-84
2022/01/16 06:56:17;;;;;;;;;;;;;;;-6.62;100.00;101512.13;5597100;31;34657;-83
2022/01/16 06:59:20;;;;;;;;;;;;;;;-6.57;100.00;101505.22;5598172;31;35660;-84
2022/01/16 07:02:24;;;;;;;;;;;;;;;-6.54;100.00;101505.22;5596775;31;34012;-83
2022/01/16 07:05:27;;;;;;;;;;;;;;;-6.49;100.00;101506.94;5597256;31;34833;-86
2022/01/16 07:08:29;;;;;;;;;;;;;;;-6.48;100.00;101498.37;5597006;31;34115;-83
2022/01/16 07:11:32;;;;;;;;;;;;;;;-6.49;100.00;101492.34;5599351;31;34806;-87
2022/01/16 07:14:35;;;;;;;;;;;;;;;-6.50;100.00;101498.34;5599679;31;35527;-86
2022/01/16 07:17:38;;;;;;;;;;;;;;;-6.48;100.00;101503.53;5600531;31;34487;-85
2022/01/16 07:20:46;;;;;;;;;;;;;;;-6.45;100.00;101509.50;5599012;31;34693;-87
2022/01/16 07:23:53;;;;;;;;;;;;;;;-6.38;100.00;101516.34;5600058;31;34322;-85
2022/01/16 07:27:00;;;;;;;;;;;;;;;-6.28;100.00;101531.78;5598960;31;34603;-84
2022/01/16 07:30:03;;;;;;;;;;;;;;;-6.27;100.00;101529.22;5597723;31;35585;-83
2022/01/16 07:33:07;;;;;;;;;;;;;;;-6.20;100.00;101524.91;5598489;31;34447;-87
2022/01/16 07:36:09;;;;;;;;;;;;;;;-6.19;100.00;101526.59;5600750;31;33699;-87
2022/01/16 07:39:12;;;;;;;;;;;;;;;-6.16;100.00;101520.63;5602779;31;35763;-87
2022/01/16 07:42:15;;;;;;;;;;;;;;;-6.18;100.00;101512.88;5599715;31;34190;-84
2022/01/16 07:45:18;;;;;;;;;;;;;;;-6.11;100.00;101518.88;5599264;31;34347;-85
2022/01/16 07:48:21;;;;;;;;;;;;;;;-5.95;100.00;101528.22;5600394;31;34276;-86
2022/01/16 07:51:27;;;;;;;;;;;;;;;-6.09;100.00;101535.19;5598456;31;34340;-87
2022/01/16 07:54:29;;;;;;;;;;;;;;;-6.00;100.00;101534.31;5600174;31;34130;-85
2022/01/16 07:57:32;;;;;;;;;;;;;;;-6.00;100.00;101539.44;5579686;31;34982;-86
2022/01/16 08:00:56;;;;;;;;;;;;;;;-5.90;100.00;101518.75;5577940;32;34938;-84
2022/01/16 08:04:00;;;;;;;;;;;;;;;-5.87;100.00;101523.06;5577950;32;34499;-84
2022/01/16 08:07:10;;;;;;;;;;;;;;;-5.90;100.00;101533.38;5578360;32;34378;-85
2022/01/16 08:10:13;;;;;;;;;;;;;;;-5.84;100.00;101519.59;5580853;32;34225;-84
2022/01/16 08:13:18;;;;;;;;;;;;;;;-5.77;100.00;101516.13;5584249;31;35623;-84
2022/01/16 08:16:20;;;;;;;;;;;;;;;-5.64;100.00;101510.03;5585676;32;35606;-84
2022/01/16 08:19:24;;;;;;;;;;;;;;;-5.61;100.00;101499.72;5579451;32;34878;-85
2022/01/16 08:22:27;;;;;;;;;;;;;;;-5.51;100.00;101512.56;5579696;32;34364;-84
2022/01/16 08:25:32;;;;;;;;;;;;;;;-5.46;100.00;101519.41;5579680;32;34620;-84
2022/01/16 08:28:35;;;;;;;;;;;;;;;-5.32;100.00;101515.91;5580911;32;34629;-84
2022/01/16 08:31:38;;;;;;;;;;;;;;;-5.27;100.00;101504.69;5579518;32;35468;-84
2022/01/16 08:34:42;;;;;;;;;;;;;;;-5.08;100.00;101501.94;5580051;32;35027;-84
2022/01/16 08:37:44;;;;;;;;;;;;;;;-4.91;100.00;101496.66;5579591;32;35077;-85
2022/01/16 08:40:47;;;;;;;;;;;;;;;-4.73;100.00;101498.22;5579653;32;33997;-84
2022/01/16 08:43:50;;;;;;;;;;;;;;;-4.72;100.00;101473.25;5577577;32;34674;-84
2022/01/16 08:46:53;;;;;;;;;;;;;;;-4.59;100.00;101474.84;5579354;32;34365;-85
2022/01/16 08:49:55;;;;;;;;;;;;;;;-4.66;100.00;101466.28;5578749;32;34634;-84
2022/01/16 08:52:58;;;;;;;;;;;;;;;-4.61;100.00;101468.00;5578306;32;34211;-84
2022/01/16 08:56:00;;;;;;;;;;;;;;;-4.72;100.00;101461.19;5579696;32;34015;-85
2022/01/16 08:59:03;;;;;;;;;;;;;;;-4.57;100.00;101464.50;5579814;32;35447;-84
2022/01/16 09:02:05;;;;;;;;;;;;;;;-4.57;100.00;101464.50;5579311;32;34806;-85
2022/01/16 09:05:11;;;;;;;;;;;;;;;-4.52;100.00;101452.38;5579563;32;34684;-84
2022/01/16 09:08:17;;;;;;;;;;;;;;;-4.35;100.00;101445.31;5578688;32;35026;-84
2022/01/16 09:11:23;;;;;;;;;;;;;;;-4.11;100.00;101443.28;5582048;32;35572;-86
2022/01/16 09:14:26;;;;;;;;;;;;;;;-4.03;99.76;101441.50;5581808;32;34563;-85
2022/01/16 09:17:31;;;;;;;;;;;;;;;-3.86;99.51;101435.22;5580628;32;34597;-85
2022/01/16 09:20:41;;;;;;;;;;;;;;;-3.70;98.99;101437.59;5600037;31;34620;-86
2022/01/16 09:23:45;;;;;;;;;;;;;;;-3.62;96.96;101443.50;5600297;31;35158;-85
2022/01/16 09:26:48;;;;;;;;;;;;;;;-3.59;97.59;101448.66;5599673;31;34755;-85
2022/01/16 09:29:50;;;;;;;;;;;;;;;-3.52;96.92;101442.50;5598730;31;34086;-84
2022/01/16 09:32:54;;;;;;;;;;;;;;;-3.46;97.13;101447.59;5599850;31;35227;-84
2022/01/16 09:35:57;;;;;;;;;;;;;;;-3.43;97.84;101442.34;5598569;31;34343;-84
2022/01/16 09:38:59;;;;;;;;;;;;;;;-3.36;98.37;101434.50;5600031;31;33841;-84
2022/01/16 09:42:03;;;;;;;;;;;;;;;-3.21;97.34;101431.69;5599298;31;34618;-84
2022/01/16 09:45:07;;;;;;;;;;;;;;;-3.11;96.92;101424.59;5598360;31;34217;-84
2022/01/16 09:48:18;;;;;;;;;;;;;;;-3.14;96.54;101422.94;5599008;31;34782;-84
2022/01/16 09:51:21;;;;;;;;;;;;;;;-3.19;97.28;101419.56;5600428;31;34688;-84
2022/01/16 09:54:24;;;;;;;;;;;;;;;-3.24;97.84;101416.19;5603497;31;35091;-85
2022/01/16 09:57:29;;;;;;;;;;;;;;;-3.31;98.03;101415.44;5599635;31;34720;-84
2022/01/16 10:00:34;;;;;;;;;;;;;;;-3.22;98.61;101411.84;5600198;31;32906;-84
2022/01/16 10:03:46;;;;;;;;;;;;;;;-3.15;98.62;101403.09;5598912;31;34365;-84
2022/01/16 10:06:57;;;;;;;;;;;;;;;-2.91;97.29;101398.38;5599959;31;34014;-84
2022/01/16 10:10:10;;;;;;;;;;;;;;;-2.82;97.07;101403.37;5606038;31;34068;-85
2022/01/16 10:13:23;;;;;;;;;;;;;;;-2.65;96.13;101394.44;5600470;31;34574;-85
2022/01/16 10:16:27;;;;;;;;;;;;;;;-2.78;96.12;101392.97;5599211;31;34514;-84
2022/01/16 10:19:31;;;;;;;;;;;;;;;-2.77;96.58;101389.50;5600174;31;35160;-84
2022/01/16 10:22:42;;;;;;;;;;;;;;;-2.53;96.15;101376.03;5598350;31;34457;-86
2022/01/16 10:25:47;;;;;;;;;;;;;;;-2.31;95.38;101378.22;5598800;31;34212;-84
2022/01/16 10:28:50;;;;;;;;;;;;;;;-2.13;94.42;101371.75;5598428;31;34202;-84
2022/01/16 10:32:09;;;;;;;;;;;;;;;-2.31;94.92;101367.84;5598293;31;34377;-84
2022/01/16 10:35:15;;;;;;;;;;;;;;;-2.28;94.78;101372.94;5598068;31;34883;-85
2022/01/16 10:38:19;;;;;;;;;;;;;;;-2.35;94.68;101367.03;5600444;31;34140;-85
2022/01/16 10:41:22;;;;;;;;;;;;;;;-2.14;96.03;101374.41;5590981;31;34391;-85
2022/01/16 10:44:28;;;;;;;;;;;;;;;-1.99;95.29;101353.31;5583986;31;34417;-85
2022/01/16 10:47:36;;;;;;;;;;;;;;;-1.99;95.34;101353.31;5583611;31;34441;-84
2022/01/16 10:50:44;;;;;;;;;;;;;;;-1.86;94.84;101339.16;5586605;31;34506;-85
2022/01/16 10:53:49;;;;;;;;;;;;;;;-1.83;94.60;101342.56;5578208;32;35667;-85
2022/01/16 10:56:52;;;;;;;;;;;;;;;-1.74;93.56;101338.03;5593596;31;34624;-84
2022/01/16 11:00:13;;;;;;;;;;;;;;;-1.58;93.95;101333.31;5582613;31;34474;-84
2022/01/16 11:03:20;;;;;;;;;;;;;;;-1.54;91.66;101343.62;5585781;31;34201;-85
2022/01/16 11:06:26;;;;;;;;;;;;;;;-1.47;92.17;101340.00;5596499;31;34389;-85
2022/01/16 11:09:29;;;;;;;;;;;;;;;-1.36;93.10;101337.97;5584556;31;34022;-85
2022/01/16 11:12:35;;;;;;;;;;;;;;;-1.19;92.62;101329.75;5580113;32;35576;-85
2022/01/16 11:15:39;;;;;;;;;;;;;;;-1.26;92.24;101323.84;5580899;32;34527;-84
2022/01/16 11:18:48;;;;;;;;;;;;;;;-1.14;92.43;101327.91;5580703;32;35065;-84
2022/01/16 11:21:54;;;;;;;;;;;;;;;-1.03;91.29;101324.16;5578583;32;34978;-84
2022/01/16 11:25:10;;;;;;;;;;;;;;;-0.94;91.23;101316.94;5578563;32;34535;-84
2022/01/16 11:28:15;;;;;;;;;;;;;;;-0.85;89.67;101318.44;5579057;32;32924;-84
2022/01/16 11:31:18;;;;;;;;;;;;;;;-0.58;89.50;101309.91;5579638;32;34335;-84
2022/01/16 11:34:24;;;;;;;;;;;;;;;-0.67;89.68;101306.69;5583943;32;34172;-84
2022/01/16 11:37:27;;;;;;;;;;;;;;;-0.47;88.87;101297.44;5584266;32;34734;-84
2022/01/16 11:40:50;;;;;;;;;;;;;;;-0.29;87.28;101290.84;5580332;32;34440;-85
2022/01/16 11:43:55;;;;;;;;;;;;;;;-0.35;88.41;101285.84;5579766;32;34094;-84
2022/01/16 11:47:03;;;;;;;;;;;;;;;-0.32;87.70;101286.59;5578850;32;34601;-84
2022/01/16 11:50:10;;;;;;;;;;;;;;;-0.13;87.56;101286.00;5577674;32;34050;-84
2022/01/16 11:53:32;;;;;;;;;;;;;;;-0.01;87.56;101280.41;5579096;31;34765;-84
2022/01/16 11:56:41;;;;;;;;;;;;;;;-0.08;87.26;101289.31;5577897;32;34328;-85
2022/01/16 11:59:43;;;;;;;;;;;;;;;0.02;87.72;101263.00;5578983;32;34393;-84
2022/01/16 12:02:49;;;;;;;;;;;;;;;-0.06;88.01;101269.31;5578098;32;35047;-84
2022/01/16 12:05:55;;;;;;;;;;;;;;;-0.18;87.74;101269.72;5579151;32;34694;-84
2022/01/16 12:09:00;;;;;;;;;;;;;;;-0.11;86.70;101268.59;5577562;32;34541;-84
2022/01/16 12:12:24;;;;;;;;;;;;;;;0.06;87.08;101256.78;5576712;32;34883;-84
2022/01/16 12:15:34;;;;;;;;;;;;;;;-0.08;88.14;101242.50;5579165;32;34843;-84
2022/01/16 12:18:36;;;;;;;;;;;;;;;-0.10;88.44;101239.09;5578334;32;34086;-84
2022/01/16 12:21:39;;;;;;;;;;;;;;;-0.06;87.79;101230.28;5576950;32;34394;-84
2022/01/16 12:24:47;;;;;;;;;;;;;;;-0.01;88.21;101230.97;5577087;32;34129;-84
2022/01/16 12:27:51;;;;;;;;;;;;;;;-0.03;87.96;101230.16;5576229;32;35006;-84
2022/01/16 12:31:03;;;;;;;;;;;;;;;-0.03;88.17;101226.72;5576453;32;34387;-84
2022/01/16 12:34:11;;;;;;;;;;;;;;;-0.11;88.33;101226.97;5578096;32;34251;-84
2022/01/16 12:37:36;;;;;;;;;;;;;;;-0.26;88.83;101230.06;5578730;32;34390;-83
2022/01/16 12:40:39;;;;;;;;;;;;;;;-0.20;89.60;101237.69;5576840;32;35199;-83
2022/01/16 12:43:47;;;;;;;;;;;;;;;-0.01;88.70;101223.19;5578753;32;33842;-83
2022/01/16 12:46:54;;;;;;;;;;;;;;;0.02;88.40;101221.38;5583986;31;35462;-83
2022/01/16 12:50:10;;;;;;;;;;;;;;;0.22;86.93;101231.97;5584356;31;35595;-83
2022/01/16 12:53:13;;;;;;;;;;;;;;;0.11;87.72;101226.28;5580452;32;35462;-83
2022/01/16 12:56:16;;;;;;;;;;;;;;;0.04;88.26;101220.41;5578551;32;35358;-84
2022/01/16 12:59:22;;;;;;;;;;;;;;;0.18;87.41;101222.56;5577997;32;34888;-83
2022/01/16 13:02:25;;;;;;;;;;;;;;;0.28;86.67;101213.53;5578055;32;34756;-84
2022/01/16 13:05:27;;;;;;;;;;;;;;;0.54;85.72;101219.59;5579228;32;34459;-85
2022/01/16 13:08:49;;;;;;;;;;;;;;;0.20;86.08;101222.53;5577750;32;34728;-83
2022/01/16 13:11:52;;;;;;;;;;;;;;;0.38;86.85;101208.03;5578017;32;34501;-83
2022/01/16 13:15:02;;;;;;;;;;;;;;;0.25;85.98;101198.03;5577087;32;34684;-83
2022/01/16 13:18:10;;;;;;;;;;;;;;;0.20;86.73;101196.50;5580439;32;35441;-84
2022/01/16 13:21:13;;;;;;;;;;;;;;;0.26;85.26;101197.13;5587746;31;35254;-84
2022/01/16 13:24:24;;;;;;;;;;;;;;;0.21;85.44;101211.22;5578905;32;34316;-84
2022/01/16 13:27:31;;;;;;;;;;;;;;;0.16;85.57;101203.56;5578303;32;34771;-84
2022/01/16 13:30:35;;;;;;;;;;;;;;;0.22;84.89;101192.94;5577286;32;34383;-84
2022/01/16 13:33:40;;;;;;;;;;;;;;;0.21;85.74;101201.62;5578362;32;34775;-84
2022/01/16 13:36:52;;;;;;;;;;;;;;;0.16;86.16;101190.53;5578065;32;34567;-83
2022/01/16 13:39:59;;;;;;;;;;;;;;;0.17;85.50;101192.22;5577236;32;34365;-83
2022/01/16 13:43:03;;;;;;;;;;;;;;;0.08;85.89;101180.41;5577712;32;35823;-83
2022/01/16 13:46:10;;;;;;;;;;;;;;;-0.11;87.01;101180.16;5579844;31;34737;-83
2022/01/16 13:49:13;;;;;;;;;;;;;;;-0.17;87.38;101176.00;5577212;32;34114;-83
2022/01/16 13:52:23;;;;;;;;;;;;;;;-0.12;87.50;101178.44;5578718;31;34591;-84
2022/01/16 13:55:26;;;;;;;;;;;;;;;-0.21;87.20;101189.16;5577268;32;34462;-84
2022/01/16 13:58:33;;;;;;;;;;;;;;;-0.25;87.68;101177.16;5576952;32;34534;-84
2022/01/16 14:01:51;;;;;;;;;;;;;;;-0.21;88.33;101169.19;5578880;32;34788;-84
2022/01/16 14:04:54;;;;;;;;;;;;;;;-0.24;87.96;101168.44;5576788;32;33875;-84
2022/01/16 14:08:13;;;;;;;;;;;;;;;-0.24;87.70;101165.84;5578096;32;34446;-84
2022/01/16 14:11:18;;;;;;;;;;;;;;;-0.39;88.70;101149.00;5579114;32;34333;-84
2022/01/16 14:14:26;;;;;;;;;;;;;;;-0.48;89.26;101156.22;5577208;32;35857;-84
2022/01/16 14:17:40;;;;;;;;;;;;;;;-0.45;89.32;101157.84;5577987;32;34616;-84
2022/01/16 14:20:49;;;;;;;;;;;;;;;-0.57;89.59;101153.91;5576970;32;34788;-84
2022/01/16 14:23:53;;;;;;;;;;;;;;;-0.56;90.56;101152.16;5577260;32;34616;-83
2022/01/16 14:26:57;;;;;;;;;;;;;;;-0.71;91.05;101146.53;5577722;32;34800;-83
2022/01/16 14:30:03;;;;;;;;;;;;;;;-0.65;90.34;101146.34;5577184;32;34467;-84
2022/01/16 14:33:05;;;;;;;;;;;;;;;-0.73;90.28;101140.50;5578218;32;35526;-83
2022/01/16 14:36:11;;;;;;;;;;;;;;;-0.79;91.14;101136.34;5577837;32;34302;-84
2022/01/16 14:39:14;;;;;;;;;;;;;;;-0.68;91.34;101138.63;5576798;32;34947;-83
2022/01/16 14:42:20;;;;;;;;;;;;;;;-0.73;91.00;101131.87;5577272;32;34050;-83
2022/01/16 14:45:23;;;;;;;;;;;;;;;-0.82;91.40;101130.41;5576799;32;34604;-83
2022/01/16 14:48:25;;;;;;;;;;;;;;;-0.90;91.61;101132.41;5576790;32;34031;-83
2022/01/16 14:51:28;;;;;;;;;;;;;;;-0.93;92.04;101122.97;5576650;32;34420;-83
2022/01/16 14:54:36;;;;;;;;;;;;;;;-1.01;92.68;101109.34;5577219;32;34353;-83
2022/01/16 14:57:38;;;;;;;;;;;;;;;-1.13;93.96;101119.25;5577323;32;34844;-83
2022/01/16 15:00:44;;;;;;;;;;;;;;;-1.24;94.59;101116.09;5577385;32;34818;-83
2022/01/16 15:03:46;;;;;;;;;;;;;;;-1.40;95.62;101131.25;5580958;32;34056;-83
2022/01/16 15:06:51;;;;;;;;;;;;;;;-1.56;96.39;101123.06;5576447;32;34945;-83
2022/01/16 15:09:53;;;;;;;;;;;;;;;-1.64;97.10;101115.50;5575970;32;34501;-83
2022/01/16 15:12:57;;;;;;;;;;;;;;;-1.78;97.90;101109.84;5577322;32;34469;-83
2022/01/16 15:16:00;;;;;;;;;;;;;;;-1.88;99.13;101115.28;5577515;32;34578;-83
2022/01/16 15:19:15;;;;;;;;;;;;;;;-1.88;99.17;101106.62;5578195;32;34149;-84
2022/01/16 15:22:24;;;;;;;;;;;;;;;-2.08;100.00;101109.75;5576896;32;34709;-84
2022/01/16 15:25:29;;;;;;;;;;;;;;;-2.17;100.00;101109.09;5576963;32;35208;-83
2022/01/16 15:28:31;;;;;;;;;;;;;;;-2.27;100.00;101115.44;5578198;32;34372;-84
2022/01/16 15:31:34;;;;;;;;;;;;;;;-2.36;100.00;101120.84;5580417;32;35437;-83
2022/01/16 15:34:37;;;;;;;;;;;;;;;-2.46;100.00;101125.41;5577471;32;34513;-83
2022/01/16 15:37:56;;;;;;;;;;;;;;;-2.50;100.00;101128.97;5581512;31;34424;-83
2022/01/16 15:41:00;;;;;;;;;;;;;;;-2.56;100.00;101132.56;5596721;31;34501;-82
2022/01/16 15:44:03;;;;;;;;;;;;;;;-2.65;100.00;101132.78;5595603;31;34928;-82
2022/01/16 15:47:07;;;;;;;;;;;;;;;-2.73;100.00;101124.31;5596977;31;34646;-83
2022/01/16 15:50:12;;;;;;;;;;;;;;;-2.69;100.00;101136.31;5597131;31;33859;-83
2022/01/16 15:53:15;;;;;;;;;;;;;;;-2.76;100.00;101158.09;5585986;31;34265;-84
2022/01/16 15:56:18;;;;;;;;;;;;;;;-2.81;100.00;101156.44;5577309;32;34167;-84
2022/01/16 15:59:20;;;;;;;;;;;;;;;-2.88;100.00;101160.06;5577091;32;34517;-83
2022/01/16 16:02:23;;;;;;;;;;;;;;;-2.92;100.00;101153.22;5577249;32;34397;-83
2022/01/16 16:05:27;;;;;;;;;;;;;;;-2.95;100.00;101150.69;5578308;32;34159;-84
2022/01/16 16:08:33;;;;;;;;;;;;;;;-2.96;100.00;101146.41;5577121;32;34467;-84
2022/01/16 16:11:35;;;;;;;;;;;;;;;-3.05;100.00;101141.44;5576591;32;34285;-83
2022/01/16 16:14:39;;;;;;;;;;;;;;;-3.07;100.00;101132.84;5577646;32;34352;-83
2022/01/16 16:17:41;;;;;;;;;;;;;;;-3.14;100.00;101129.53;5577738;32;34168;-84
2022/01/16 16:20:44;;;;;;;;;;;;;;;-3.18;100.00;101136.50;5574616;32;34954;-84
2022/01/16 16:23:50;;;;;;;;;;;;;;;-3.20;100.00;101146.03;5576506;32;35152;-83